createdAt,value
2023-01-29T00:02:08.720Z,83.64
2023-01-29T00:04:35.180Z,83.68
2023-01-29T00:07:12.375Z,84.10
2023-01-29T00:09:38.954Z,82.65
2023-01-29T00:12:05.376Z,81.96
2023-01-29T00:14:31.779Z,81.11
2023-01-29T00:16:58.164Z,82.11
2023-01-29T00:19:28.690Z,82.39
2023-01-29T00:21:55.123Z,83.11
2023-01-29T00:24:21.856Z,81.77
2023-01-29T00:26:54.107Z,82.55
2023-01-29T00:29:21.996Z,83.58
2023-01-29T00:31:49.493Z,84.02
2023-01-29T00:34:15.957Z,83.25
2023-01-29T00:36:45.551Z,82.04
2023-01-29T00:39:11.922Z,81.37
2023-01-29T00:41:56.793Z,81.49
2023-01-29T00:44:41.698Z,80.77
2023-01-29T00:47:28.095Z,80.73
2023-01-29T00:49:54.717Z,81.09
2023-01-29T00:52:26.864Z,81.76
2023-01-29T00:54:55.827Z,80.18
2023-01-29T00:57:22.464Z,79.12
2023-01-29T00:59:55.232Z,78.98
2023-01-29T01:02:40.718Z,80.79
2023-01-29T01:05:13.989Z,79.92
2023-01-29T01:07:41.252Z,79.77
2023-01-29T01:10:23.215Z,79.38
2023-01-29T01:12:57.910Z,78.74
2023-01-29T01:15:25.636Z,80.39
2023-01-29T01:17:55.931Z,79.91
2023-01-29T01:20:22.705Z,78.87
2023-01-29T01:22:49.512Z,79.80
2023-01-29T01:25:16.171Z,79.79
2023-01-29T01:27:43.531Z,78.59
2023-01-29T01:30:12.103Z,77.89
2023-01-29T01:32:39.939Z,79.01
2023-01-29T01:35:06.755Z,79.92
2023-01-29T01:37:33.437Z,80.98
2023-01-29T01:39:59.795Z,80.40
2023-01-29T01:42:32.329Z,81.91
2023-01-29T01:45:04.842Z,82.71
2023-01-29T01:47:41.867Z,81.94
2023-01-29T01:50:22.057Z,81.63
2023-01-29T01:52:52.036Z,81.46
2023-01-29T01:55:21.645Z,81.49
2023-01-29T01:57:50.576Z,82.04
2023-01-29T02:00:18.435Z,82.00
2023-01-29T02:03:04.729Z,80.63
2023-01-29T02:05:51.067Z,81.46
2023-01-29T02:08:44.838Z,78.72
2023-01-29T02:11:11.409Z,79.15
2023-01-29T02:13:37.802Z,79.64
2023-01-29T02:16:04.272Z,82.44
2023-01-29T02:18:37.992Z,83.23
2023-01-29T02:21:25.065Z,81.50
2023-01-29T02:24:11.458Z,79.65
2023-01-29T02:26:50.057Z,80.15
2023-01-29T02:29:22.673Z,82.44
2023-01-29T02:31:57.191Z,80.26
2023-01-29T02:34:26.649Z,80.95
2023-01-29T02:36:56.894Z,80.01
2023-01-29T02:39:28.855Z,79.92
2023-01-29T02:42:00.690Z,81.06
2023-01-29T02:44:47.292Z,81.40
2023-01-29T02:47:20.919Z,81.57
2023-01-29T02:49:57.703Z,80.00
2023-01-29T02:52:31.826Z,80.29
2023-01-29T02:55:13.619Z,80.62
2023-01-29T02:57:42.236Z,80.30
2023-01-29T03:00:24.371Z,80.98
2023-01-29T03:02:59.430Z,80.96
2023-01-29T03:05:32.559Z,81.17
2023-01-29T03:08:02.417Z,80.00
2023-01-29T03:10:31.949Z,80.78
2023-01-29T03:13:02.343Z,81.45
2023-01-29T03:15:31.040Z,81.29
2023-01-29T03:18:05.168Z,80.81
2023-01-29T03:20:38.317Z,81.35
2023-01-29T03:23:14.441Z,80.79
2023-01-29T03:26:01.466Z,81.28
2023-01-29T03:28:48.409Z,81.65
2023-01-29T03:31:34.055Z,82.27
2023-01-29T03:34:05.352Z,82.25
2023-01-29T03:36:39.909Z,82.08
2023-01-29T03:39:11.429Z,81.69
2023-01-29T03:41:47.694Z,82.77
2023-01-29T03:44:32.815Z,82.98
2023-01-29T03:47:20.134Z,83.52
2023-01-29T03:49:53.508Z,83.05
2023-01-29T03:52:43.562Z,82.09
2023-01-29T03:55:15.510Z,79.83
2023-01-29T03:57:45.740Z,81.32
2023-01-29T04:00:21.366Z,83.62
2023-01-29T04:02:52.704Z,83.56
2023-01-29T04:05:24.526Z,83.02
2023-01-29T04:07:54.459Z,83.28
2023-01-29T04:10:24.059Z,82.34
2023-01-29T04:12:54.076Z,83.75
2023-01-29T04:15:22.403Z,80.51
2023-01-29T04:17:50.327Z,81.11
2023-01-29T04:20:17.021Z,82.68
2023-01-29T04:22:46.083Z,80.21
2023-01-29T04:25:19.145Z,80.75
2023-01-29T04:27:57.168Z,81.57
2023-01-29T04:30:26.985Z,81.68
2023-01-29T04:32:57.994Z,80.36
2023-01-29T04:35:29.307Z,81.58
2023-01-29T04:38:08.322Z,80.62
2023-01-29T04:40:34.660Z,80.98
2023-01-29T04:43:09.527Z,79.81
2023-01-29T04:45:36.950Z,79.93
2023-01-29T04:48:21.385Z,80.67
2023-01-29T04:51:07.773Z,80.33
2023-01-29T04:54:11.029Z,82.86
2023-01-29T04:56:43.052Z,84.04
2023-01-29T04:59:14.658Z,80.31
2023-01-29T05:01:41.257Z,80.28
2023-01-29T05:04:10.552Z,79.19
2023-01-29T05:06:38.059Z,80.18
2023-01-29T05:09:04.944Z,79.89
2023-01-29T05:11:32.990Z,81.42
2023-01-29T05:14:01.162Z,79.35
2023-01-29T05:16:41.945Z,79.87
2023-01-29T05:19:13.067Z,79.79
2023-01-29T05:21:41.168Z,79.66
2023-01-29T05:24:18.556Z,81.90
2023-01-29T05:27:05.767Z,81.20
2023-01-29T05:29:32.154Z,81.74
2023-01-29T05:31:58.519Z,81.97
2023-01-29T05:34:25.166Z,80.18
2023-01-29T05:36:51.480Z,80.88
2023-01-29T05:39:17.875Z,78.85
2023-01-29T05:41:44.221Z,80.31
2023-01-29T05:44:11.895Z,79.51
2023-01-29T05:46:38.737Z,79.73
2023-01-29T05:49:05.649Z,81.83
2023-01-29T05:51:32.178Z,80.85
2023-01-29T05:54:04.798Z,79.31
2023-01-29T05:56:31.247Z,80.92
2023-01-29T05:58:57.936Z,81.06
2023-01-29T06:01:25.644Z,82.17
2023-01-29T06:03:53.230Z,82.61
2023-01-29T06:06:19.577Z,80.59
2023-01-29T06:08:46.037Z,78.84
2023-01-29T06:11:13.104Z,82.49
2023-01-29T06:13:39.503Z,82.28
2023-01-29T06:16:06.829Z,82.99
2023-01-29T06:18:33.205Z,81.00
2023-01-29T06:21:03.733Z,81.32
2023-01-29T06:23:30.416Z,81.21
2023-01-29T06:26:06.742Z,80.17
2023-01-29T06:28:33.315Z,81.18
2023-01-29T06:31:11.945Z,81.65
2023-01-29T06:33:42.972Z,82.33
2023-01-29T06:36:16.548Z,81.36
2023-01-29T06:38:42.975Z,79.90
2023-01-29T06:41:25.832Z,80.32
2023-01-29T06:43:52.207Z,81.46
2023-01-29T06:46:24.474Z,80.98
2023-01-29T06:48:50.891Z,82.83
2023-01-29T06:51:17.345Z,81.69
2023-01-29T06:53:46.048Z,81.05
2023-01-29T06:56:13.177Z,80.91
2023-01-29T06:58:39.529Z,79.28
2023-01-29T07:01:07.246Z,78.87
2023-01-29T07:03:34.698Z,80.35
2023-01-29T07:06:01.332Z,82.18
2023-01-29T07:08:28.732Z,82.23
2023-01-29T07:11:01.308Z,81.47
2023-01-29T07:13:27.848Z,82.53
2023-01-29T07:15:54.185Z,81.03
2023-01-29T07:18:20.589Z,82.22
2023-01-29T07:20:46.956Z,82.72
2023-01-29T07:23:13.581Z,81.74
2023-01-29T07:25:40.587Z,81.83
2023-01-29T07:28:09.317Z,81.68
2023-01-29T07:30:36.008Z,82.39
2023-01-29T07:33:08.169Z,84.17
2023-01-29T07:35:40.723Z,84.51
2023-01-29T07:38:07.444Z,82.45
2023-01-29T07:40:33.919Z,83.13
2023-01-29T07:43:01.307Z,83.36
2023-01-29T07:45:32.091Z,82.55
2023-01-29T07:48:13.738Z,83.94
2023-01-29T07:50:40.306Z,83.84
2023-01-29T07:53:07.040Z,81.09
2023-01-29T07:55:33.839Z,80.44
2023-01-29T07:58:01.588Z,80.92
2023-01-29T08:00:28.199Z,81.31
2023-01-29T08:03:06.666Z,83.23
2023-01-29T08:05:33.450Z,81.54
2023-01-29T08:08:06.428Z,81.53
2023-01-29T08:10:46.422Z,80.43
2023-01-29T08:13:12.897Z,80.00
2023-01-29T08:15:45.302Z,80.60
2023-01-29T08:18:11.968Z,81.06
2023-01-29T08:20:38.396Z,81.54
2023-01-29T08:23:06.365Z,79.47
2023-01-29T08:25:35.624Z,80.02
2023-01-29T08:28:02.016Z,81.03
2023-01-29T08:30:30.500Z,81.03
2023-01-29T08:32:56.887Z,80.52
2023-01-29T08:35:23.588Z,81.00
2023-01-29T08:37:59.161Z,80.91
2023-01-29T08:40:26.326Z,80.30
2023-01-29T08:43:06.290Z,80.34
2023-01-29T08:45:35.622Z,83.53
2023-01-29T08:48:02.243Z,81.73
2023-01-29T08:50:43.740Z,82.18
2023-01-29T08:53:10.353Z,78.59
2023-01-29T08:55:38.004Z,80.48
2023-01-29T08:58:05.481Z,81.35
2023-01-29T09:00:32.898Z,80.17
2023-01-29T09:03:00.890Z,78.78
2023-01-29T09:05:28.146Z,79.84
2023-01-29T09:07:57.492Z,79.59
2023-01-29T09:10:23.836Z,81.68
2023-01-29T09:13:00.155Z,79.86
2023-01-29T09:15:26.480Z,78.86
2023-01-29T09:17:52.974Z,78.98
2023-01-29T09:20:19.663Z,77.32
2023-01-29T09:22:46.795Z,77.11
2023-01-29T09:25:39.192Z,75.54
2023-01-29T09:28:06.323Z,78.20
2023-01-29T09:30:34.603Z,76.90
2023-01-29T09:33:01.439Z,76.36
2023-01-29T09:35:27.809Z,75.32
2023-01-29T09:37:54.248Z,73.94
2023-01-29T09:40:25.994Z,74.32
2023-01-29T09:42:57.795Z,73.57
2023-01-29T09:45:26.431Z,74.00
2023-01-29T09:47:55.928Z,72.63
2023-01-29T09:50:33.988Z,72.51
2023-01-29T09:53:11.312Z,75.16
2023-01-29T09:55:49.744Z,75.12
2023-01-29T09:58:22.883Z,73.26
2023-01-29T10:01:12.365Z,72.61
2023-01-29T10:03:48.766Z,72.93
2023-01-29T10:06:40.777Z,74.25
2023-01-29T10:09:25.856Z,73.08
2023-01-29T10:11:58.327Z,72.22
2023-01-29T10:14:27.971Z,69.46
2023-01-29T10:17:12.869Z,69.33
2023-01-29T10:19:42.711Z,70.70
2023-01-29T10:22:21.351Z,70.59
2023-01-29T10:24:50.483Z,70.81
2023-01-29T10:27:19.336Z,70.34
2023-01-29T10:29:49.107Z,70.14
2023-01-29T10:32:17.673Z,68.72
2023-01-29T10:34:54.717Z,67.15
2023-01-29T10:37:41.234Z,67.18
2023-01-29T10:40:26.087Z,68.17
2023-01-29T10:43:06.833Z,68.16
2023-01-29T10:45:58.003Z,69.35
2023-01-29T10:48:30.404Z,66.94
2023-01-29T10:51:05.662Z,68.73
2023-01-29T10:53:39.801Z,70.03
2023-01-29T10:56:22.980Z,70.42
2023-01-29T10:58:59.410Z,69.08
2023-01-29T11:01:27.081Z,69.41
2023-01-29T11:03:58.654Z,69.91
2023-01-29T11:06:28.240Z,67.95
2023-01-29T11:09:28.919Z,69.04
2023-01-29T11:11:58.673Z,69.10
2023-01-29T11:14:38.299Z,68.53
2023-01-29T11:17:05.153Z,68.58
2023-01-29T11:19:41.977Z,69.06
2023-01-29T11:22:20.125Z,68.50
2023-01-29T11:25:07.357Z,69.19
2023-01-29T11:27:35.566Z,69.78
2023-01-29T11:30:02.119Z,69.01
2023-01-29T11:32:30.129Z,69.17
2023-01-29T11:35:19.303Z,68.50
2023-01-29T11:37:46.545Z,69.03
2023-01-29T11:40:19.028Z,66.91
2023-01-29T11:42:54.454Z,68.42
2023-01-29T11:45:38.671Z,67.93
2023-01-29T11:48:05.086Z,68.45
2023-01-29T11:50:33.809Z,68.20
2023-01-29T11:53:01.287Z,68.36
2023-01-29T11:55:50.360Z,67.94
2023-01-29T11:58:21.380Z,65.63
2023-01-29T12:00:50.748Z,65.51
2023-01-29T12:03:37.215Z,67.13
2023-01-29T12:06:32.609Z,66.34
2023-01-29T12:09:15.968Z,63.80
2023-01-29T12:11:44.233Z,65.80
2023-01-29T12:14:40.893Z,64.54
2023-01-29T12:17:18.391Z,65.32
2023-01-29T12:20:07.104Z,65.88
2023-01-29T12:22:54.637Z,66.30
2023-01-29T12:25:23.224Z,66.55
2023-01-29T12:27:58.817Z,65.16
2023-01-29T12:30:44.361Z,65.28
2023-01-29T12:33:21.197Z,65.69
2023-01-29T12:35:50.942Z,66.17
2023-01-29T12:38:17.689Z,64.88
2023-01-29T12:40:47.551Z,63.48
2023-01-29T12:43:23.639Z,65.71
2023-01-29T12:45:54.134Z,66.83
2023-01-29T12:48:31.275Z,64.00
2023-01-29T12:51:09.286Z,65.54
2023-01-29T12:53:39.591Z,65.89
2023-01-29T12:56:11.212Z,66.85
2023-01-29T12:58:40.998Z,66.45
2023-01-29T13:01:22.068Z,67.36
2023-01-29T13:04:25.605Z,67.38
2023-01-29T13:06:55.222Z,65.80
2023-01-29T13:09:25.665Z,66.45
2023-01-29T13:12:07.124Z,67.57
2023-01-29T13:14:41.275Z,66.54
2023-01-29T13:17:12.847Z,66.65
2023-01-29T13:19:45.715Z,65.55
2023-01-29T13:22:32.462Z,66.59
2023-01-29T13:25:05.050Z,66.07
2023-01-29T13:27:33.621Z,67.17
2023-01-29T13:30:00.656Z,64.13
2023-01-29T13:32:28.436Z,65.46
2023-01-29T13:35:00.028Z,66.57
2023-01-29T13:37:40.132Z,65.48
2023-01-29T13:40:08.906Z,66.64
2023-01-29T13:42:48.563Z,67.62
2023-01-29T13:45:21.501Z,66.46
2023-01-29T13:47:48.912Z,66.43
2023-01-29T13:50:29.476Z,66.57
2023-01-29T13:53:01.789Z,64.32
2023-01-29T13:55:40.401Z,64.77
2023-01-29T13:58:07.943Z,65.80
2023-01-29T14:00:36.364Z,65.08
2023-01-29T14:03:14.047Z,66.43
2023-01-29T14:06:13.924Z,64.94
2023-01-29T14:08:46.529Z,66.43
2023-01-29T14:11:16.173Z,66.72
2023-01-29T14:13:43.682Z,67.98
2023-01-29T14:16:14.921Z,66.45
2023-01-29T14:18:56.611Z,66.96
2023-01-29T14:21:35.076Z,65.70
2023-01-29T14:24:18.798Z,67.30
2023-01-29T14:26:48.220Z,66.34
2023-01-29T14:29:35.416Z,65.74
2023-01-29T14:32:08.891Z,67.14
2023-01-29T14:34:36.717Z,65.74
2023-01-29T14:37:24.404Z,66.21
2023-01-29T14:39:57.629Z,67.89
2023-01-29T14:42:36.273Z,68.50
2023-01-29T14:45:21.567Z,68.03
2023-01-29T14:47:57.499Z,69.30
2023-01-29T14:50:31.726Z,68.75
2023-01-29T14:53:16.978Z,69.50
2023-01-29T14:56:02.965Z,68.36
2023-01-29T14:58:51.079Z,67.48
2023-01-29T15:01:24.567Z,68.57
2023-01-29T15:04:14.375Z,68.62
2023-01-29T15:07:00.781Z,69.54
2023-01-29T15:09:45.905Z,69.76
2023-01-29T15:12:41.645Z,67.81
2023-01-29T15:15:33.665Z,67.59
2023-01-29T15:18:17.959Z,67.35
2023-01-29T15:20:44.571Z,69.18
2023-01-29T15:23:27.639Z,69.39
2023-01-29T15:26:01.698Z,70.34
2023-01-29T15:28:35.385Z,70.43
2023-01-29T15:31:11.964Z,69.79
2023-01-29T15:33:38.867Z,70.88
2023-01-29T15:36:08.188Z,71.69
2023-01-29T15:38:38.116Z,72.74
2023-01-29T15:41:18.635Z,72.17
2023-01-29T15:44:01.592Z,72.14
2023-01-29T15:46:42.014Z,71.90
2023-01-29T15:49:17.956Z,72.11
2023-01-29T15:51:48.142Z,72.01
2023-01-29T15:54:20.902Z,72.69
2023-01-29T15:56:48.366Z,74.39
2023-01-29T15:59:17.670Z,75.24
2023-01-29T16:01:45.555Z,74.35
2023-01-29T16:04:15.265Z,73.66
2023-01-29T16:06:43.725Z,75.13
2023-01-29T16:09:15.693Z,75.17
2023-01-29T16:11:43.492Z,76.01
2023-01-29T16:14:12.921Z,77.19
2023-01-29T16:16:39.259Z,77.72
2023-01-29T16:19:22.332Z,76.92
2023-01-29T16:22:00.980Z,76.61
2023-01-29T16:24:28.153Z,76.11
2023-01-29T16:27:23.703Z,76.35
2023-01-29T16:29:51.136Z,77.63
2023-01-29T16:32:24.234Z,78.90
2023-01-29T16:34:58.553Z,79.68
2023-01-29T16:37:32.360Z,79.56
2023-01-29T16:39:59.089Z,78.40
2023-01-29T16:42:26.581Z,78.68
2023-01-29T16:44:57.330Z,79.04
2023-01-29T16:47:43.692Z,79.68
2023-01-29T16:50:35.978Z,79.88
2023-01-29T16:53:12.832Z,79.96
2023-01-29T16:55:41.174Z,80.20
2023-01-29T16:58:25.344Z,78.75
2023-01-29T17:00:57.744Z,79.82
2023-01-29T17:03:25.596Z,79.46
2023-01-29T17:05:55.205Z,79.91
2023-01-29T17:08:32.505Z,79.02
2023-01-29T17:10:59.471Z,78.00
2023-01-29T17:13:45.283Z,77.89
2023-01-29T17:16:31.395Z,81.54
2023-01-29T17:18:58.540Z,79.87
2023-01-29T17:21:25.377Z,78.41
2023-01-29T17:23:53.797Z,77.90
2023-01-29T17:26:20.916Z,78.89
2023-01-29T17:28:49.914Z,78.25
2023-01-29T17:31:17.340Z,77.90
2023-01-29T17:33:44.112Z,77.70
2023-01-29T17:36:12.629Z,77.46
2023-01-29T17:38:39.334Z,77.21
2023-01-29T17:41:24.732Z,77.44
2023-01-29T17:43:51.059Z,76.60
2023-01-29T17:46:19.080Z,77.27
2023-01-29T17:48:46.082Z,78.01
2023-01-29T17:51:14.571Z,78.13
2023-01-29T17:53:47.221Z,78.48
2023-01-29T17:56:30.986Z,79.01
2023-01-29T17:58:57.309Z,78.29
2023-01-29T18:01:23.796Z,77.99
2023-01-29T18:03:51.271Z,77.77
2023-01-29T18:06:26.130Z,77.86
2023-01-29T18:08:52.667Z,77.80
2023-01-29T18:11:25.221Z,78.60
2023-01-29T18:13:51.674Z,78.81
2023-01-29T18:16:18.543Z,79.35
2023-01-29T18:18:44.943Z,79.44
2023-01-29T18:21:11.318Z,79.95
2023-01-29T18:23:37.741Z,80.83
2023-01-29T18:26:04.481Z,80.84
2023-01-29T18:28:31.562Z,82.07
2023-01-29T18:30:57.933Z,82.56
2023-01-29T18:33:25.885Z,84.66
2023-01-29T18:35:54.960Z,84.22
2023-01-29T18:38:21.508Z,83.68
2023-01-29T18:40:47.916Z,83.97
2023-01-29T18:43:14.659Z,84.24
2023-01-29T18:45:41.169Z,85.15
2023-01-29T18:48:12.638Z,87.02
2023-01-29T18:50:41.129Z,87.84
2023-01-29T18:53:07.697Z,87.96
2023-01-29T18:55:36.140Z,87.15
2023-01-29T18:58:28.997Z,87.93
2023-01-29T19:00:48.900Z,88.31
2023-01-29T19:03:15.362Z,87.64
2023-01-29T19:05:42.735Z,88.24
2023-01-29T19:08:09.653Z,87.88
2023-01-29T19:10:36.443Z,88.26
2023-01-29T19:13:04.357Z,87.26
2023-01-29T19:15:32.374Z,88.34
2023-01-29T19:17:59.008Z,89.35
2023-01-29T19:20:31.267Z,88.24
2023-01-29T19:22:57.695Z,88.13
2023-01-29T19:25:24.070Z,88.48
2023-01-29T19:27:51.607Z,88.90
2023-01-29T19:30:19.016Z,88.26
2023-01-29T19:32:45.401Z,89.40
2023-01-29T19:35:11.871Z,88.93
2023-01-29T19:37:39.215Z,89.68
2023-01-29T19:40:05.837Z,88.36
2023-01-29T19:42:32.274Z,90.18
2023-01-29T19:44:58.604Z,90.00
2023-01-29T19:47:25.004Z,90.32
2023-01-29T19:49:53.398Z,89.79
2023-01-29T19:52:50.328Z,89.90
2023-01-29T19:55:18.303Z,91.04
2023-01-29T19:57:45.055Z,89.82
2023-01-29T20:00:12.196Z,89.11
2023-01-29T20:02:38.684Z,90.68
2023-01-29T20:05:05.639Z,90.65
2023-01-29T20:07:32.020Z,90.00
2023-01-29T20:09:58.402Z,90.23
2023-01-29T20:12:27.004Z,91.69
2023-01-29T20:14:53.375Z,91.57
2023-01-29T20:17:20.792Z,90.70
2023-01-29T20:19:53.237Z,90.43
2023-01-29T20:22:19.789Z,90.81
2023-01-29T20:24:46.322Z,91.73
2023-01-29T20:27:12.684Z,91.50
2023-01-29T20:29:39.433Z,91.56
2023-01-29T20:32:07.932Z,90.48
2023-01-29T20:34:41.803Z,92.44
2023-01-29T20:37:08.233Z,91.94
2023-01-29T20:39:34.687Z,93.73
2023-01-29T20:42:01.014Z,94.18
2023-01-29T20:44:27.346Z,93.97
2023-01-29T20:46:53.835Z,93.05
2023-01-29T20:49:21.049Z,93.77
2023-01-29T20:51:47.396Z,93.86
2023-01-29T20:54:13.920Z,92.40
2023-01-29T20:56:45.556Z,90.59
2023-01-29T20:59:13.375Z,91.91
2023-01-29T21:01:40.293Z,94.05
2023-01-29T21:04:06.647Z,94.84
2023-01-29T21:06:33.442Z,95.31
2023-01-29T21:08:59.849Z,93.92
2023-01-29T21:11:26.421Z,95.35
2023-01-29T21:13:57.580Z,96.27
2023-01-29T21:16:33.032Z,96.49
2023-01-29T21:18:59.723Z,98.40
2023-01-29T21:21:26.782Z,97.43
2023-01-29T21:23:53.352Z,98.56
2023-01-29T21:26:21.105Z,98.60
2023-01-29T21:28:47.497Z,97.72
2023-01-29T21:31:14.559Z,100.00
2023-01-29T21:33:41.964Z,100.00
2023-01-29T21:36:10.232Z,100.00
2023-01-29T21:38:36.996Z,100.00
2023-01-29T21:41:04.790Z,100.00
2023-01-29T21:43:31.275Z,100.00
2023-01-29T21:46:14.100Z,100.00
2023-01-29T21:48:40.893Z,99.80
2023-01-29T21:51:08.573Z,98.71
2023-01-29T21:53:35.089Z,98.59
2023-01-29T21:56:02.147Z,98.01
2023-01-29T21:58:28.825Z,97.43
2023-01-29T22:00:55.275Z,98.86
2023-01-29T22:03:21.854Z,98.46
2023-01-29T22:05:50.055Z,97.82
2023-01-29T22:08:17.910Z,98.82
2023-01-29T22:10:44.449Z,97.86
2023-01-29T22:13:11.096Z,98.06
2023-01-29T22:15:37.420Z,97.57
2023-01-29T22:18:03.951Z,97.64
2023-01-29T22:20:31.065Z,98.32
2023-01-29T22:22:58.798Z,96.85
2023-01-29T22:25:25.153Z,97.63
2023-01-29T22:27:51.774Z,97.18
2023-01-29T22:30:18.659Z,98.26
2023-01-29T22:32:46.330Z,100.00
2023-01-29T22:35:12.688Z,100.00
2023-01-29T22:37:39.028Z,100.00
2023-01-29T22:40:05.867Z,100.00
2023-01-29T22:42:32.317Z,100.00
2023-01-29T22:44:58.623Z,100.00
2023-01-29T22:47:25.033Z,100.00
2023-01-29T22:49:52.426Z,100.00
2023-01-29T22:52:22.171Z,100.00
2023-01-29T22:54:48.549Z,100.00
2023-01-29T22:57:15.312Z,100.00
2023-01-29T22:59:43.850Z,100.00
2023-01-29T23:02:10.175Z,100.00
2023-01-29T23:04:36.777Z,99.73
2023-01-29T23:07:03.397Z,99.41
2023-01-29T23:09:29.741Z,99.05
2023-01-29T23:11:56.066Z,100.00
2023-01-29T23:14:22.448Z,100.00
2023-01-29T23:16:59.979Z,100.00
2023-01-29T23:19:27.131Z,100.00
2023-01-29T23:21:53.471Z,100.00
2023-01-29T23:24:19.829Z,100.00
2023-01-29T23:27:04.917Z,100.00
2023-01-29T23:29:31.267Z,100.00
2023-01-29T23:31:57.657Z,100.00
2023-01-29T23:34:24.097Z,100.00
2023-01-29T23:36:50.543Z,100.00
2023-01-29T23:39:17.028Z,100.00
2023-01-29T23:41:43.480Z,100.00
2023-01-29T23:44:10.107Z,100.00
2023-01-29T23:46:36.553Z,100.00
2023-01-29T23:49:03.113Z,100.00
2023-01-29T23:51:29.497Z,100.00
2023-01-29T23:53:55.936Z,100.00
2023-01-29T23:56:22.499Z,100.00
2023-01-29T23:58:52.440Z,100.00
